| time (UTC) | temp F | wind direction | speed knots | gust knots | rain 1hr in | rain 24hr in | rain mn in | humidity % | barometer mb |
| 20260510044914 | 55 | 210 | 0.9 | 1.7 | 0.09 | 0.00 | 0.07 | 98 | 1010.0 |
| 20260510044414 | 55 | 177 | 0.9 | 1.7 | 0.13 | 0.00 | 0.05 | 98 | 1011.0 |
| 20260510043915 | 55 | 147 | 1.7 | 1.7 | 0.06 | 0.00 | 0.04 | 98 | 1010.0 |
| 20260510043414 | 55 | 193 | 1.7 | 2.6 | 0.00 | 0.00 | 0.04 | 98 | 1010.0 |
| 20260510042914 | 55 | 228 | 0.9 | 1.7 | 0.00 | 0.00 | 0.04 | 98 | 1010.0 |
| 20260510042415 | 55 | 158 | 1.7 | 2.6 | 0.00 | 0.00 | 0.04 | 98 | 1010.0 |
| 20260510041914 | 55 | 54 | 0.9 | 1.7 | 0.07 | 0.00 | 0.08 | 97 | 1010.0 |
| 20260510041414 | 54 | 225 | 0.9 | 1.7 | 0.24 | 0.00 | 0.07 | 97 | 1011.0 |
| 20260510040914 | 54 | 225 | 0.9 | 1.7 | 0.55 | 0.00 | 0.05 | 97 | 1010.0 |
| 20260510040414 | 54 | 221 | 1.7 | 1.7 | 0.27 | 0.00 | 0.02 | 97 | 1010.0 |
| 20260510035914 | 54 | 224 | 2.6 | 3.5 | 0.13 | 0.00 | 0.87 | 97 | 1010.0 |
| 20260510035414 | 54 | 225 | 0.9 | 1.7 | 0.00 | 0.00 | 0.87 | 97 | 1010.0 |
| 20260510034914 | 54 | 200 | 0.9 | 1.7 | 0.00 | 0.00 | 0.87 | 97 | 1010.0 |
| 20260510034414 | 54 | 46 | 0.9 | 1.7 | 0.05 | 0.00 | 0.87 | 97 | 1010.0 |
| 20260510033914 | 54 | 45 | 0.9 | 1.7 | 0.00 | 0.00 | 0.87 | 97 | 1009.0 |
| 20260510033415 | 54 | 44 | 0.9 | 2.6 | 0.00 | 0.00 | 0.88 | 97 | 1009.0 |
| 20260510032914 | 54 | 20 | 2.6 | 4.3 | 0.00 | 0.00 | 0.88 | 97 | 1009.0 |
| 20260510032414 | 54 | 171 | 1.7 | 5.2 | 0.00 | 0.00 | 0.84 | 97 | 1009.0 |
| 20260510031914 | 54 | 186 | 3.5 | 5.2 | 0.48 | 0.00 | 0.83 | 97 | 1009.0 |
| 20260510031414 | 54 | 180 | 2.6 | 3.5 | 0.12 | 0.00 | 0.79 | 97 | 1009.0 |
| 20260510030914 | 54 | 184 | 1.7 | 2.6 | 0.04 | 0.00 | 0.78 | 97 | 1009.0 |
| 20260510030414 | 54 | 141 | 0.0 | 0.9 | 0.10 | 0.00 | 0.78 | 97 | 1009.0 |
| 20260510025914 | 54 | 20 | 0.9 | 1.7 | 0.04 | 0.00 | 0.76 | 97 | 1010.0 |
| 20260510025414 | 54 | 265 | 0.9 | 3.5 | 0.00 | 0.00 | 0.76 | 97 | 1010.0 |
| 20260510024914 | 54 | 257 | 0.0 | 3.5 | 0.00 | 0.00 | 0.76 | 97 | 1010.0 |
| 20260510024414 | 54 | 0 | 0.0 | 0.0 | 0.00 | 0.00 | 0.76 | 97 | 1009.0 |
| 20260510023915 | 54 | 0 | 0.0 | 0.0 | 0.00 | 0.00 | 0.76 | 97 | 1009.0 |
| 20260510023414 | 54 | 0 | 0.0 | 0.0 | 0.00 | 0.00 | 0.75 | 97 | 1009.0 |
| 20260510022914 | 54 | 13 | 1.7 | 2.6 | 0.00 | 0.00 | 0.75 | 97 | 1009.0 |
| 20260510022414 | 54 | 37 | 0.0 | 0.9 | 0.00 | 0.00 | 0.74 | 96 | 1009.0 |
| 20260510021914 | 54 | 75 | 0.0 | 1.7 | 0.02 | 0.00 | 0.75 | 96 | 1009.0 |
| 20260510021414 | 54 | 194 | 1.7 | 3.5 | 0.16 | 0.00 | 0.74 | 96 | 1010.0 |
| 20260510020914 | 55 | 188 | 3.5 | 4.3 | 0.01 | 0.00 | 0.74 | 96 | 1010.0 |
| 20260510020414 | 55 | 0 | 0.0 | 0.0 | 0.18 | 0.00 | 0.75 | 95 | 1010.0 |
| 20260510015915 | 55 | 17 | 0.9 | 2.6 | 0.16 | 0.00 | 0.72 | 95 | 1010.0 |
| 20260510015414 | 55 | 195 | 0.9 | 1.7 | 0.17 | 0.00 | 0.70 | 95 | 1010.0 |
| 20260510014915 | 55 | 0 | 0.0 | 0.0 | 0.37 | 0.00 | 0.70 | 94 | 1010.0 |
| 20260510014414 | 55 | 27 | 0.0 | 1.7 | 0.47 | 0.00 | 0.66 | 94 | 1010.0 |
| 20260510013914 | 55 | 0 | 0.0 | 0.0 | 0.25 | 0.00 | 0.63 | 93 | 1010.0 |
| 20260510013414 | 55 | 0 | 0.0 | 0.0 | 0.12 | 0.00 | 0.55 | 93 | 1010.0 |
| 20260510012916 | 55 | 0 | 0.0 | 0.0 | 0.32 | 0.00 | 0.54 | 92 | 1010.0 |
| 20260510012414 | 55 | 353 | 7.8 | 9.6 | 0.26 | 0.00 | 0.53 | 92 | 1010.0 |
| 20260510011915 | 56 | 359 | 7.0 | 10.4 | 0.44 | 0.00 | 0.36 | 90 | 1010.0 |
| 20260510011414 | 57 | 4 | 6.1 | 9.6 | 1.13 | 0.00 | 0.33 | 88 | 1009.0 |
| 20260510010914 | 59 | 359 | 4.3 | 10.4 | 1.78 | 0.00 | 0.17 | 81 | 1010.0 |
| 20260510010414 | 62 | 13 | 3.5 | 6.1 | 0.17 | 0.00 | 0.11 | 73 | 1009.0 |
| 20260510005915 | 64 | 351 | 5.2 | 10.4 | 0.01 | 0.00 | 0.10 | 66 | 1008.0 |
| 20260510005414 | 65 | 329 | 0.9 | 2.6 | 0.01 | 0.00 | 0.10 | 61 | 1007.0 |
| 20260510004914 | 65 | 202 | 0.9 | 1.7 | 0.05 | 0.00 | 0.10 | 60 | 1007.0 |
| 20260510004416 | 65 | 200 | 0.0 | 1.7 | 0.00 | 0.00 | 0.10 | 59 | 1007.0 |
| 20260510003914 | 65 | 162 | 1.7 | 2.6 | 0.00 | 0.00 | 0.10 | 59 | 1007.0 |
| 20260510003416 | 65 | 300 | 0.0 | 0.9 | 0.00 | 0.00 | 0.10 | 60 | 1007.0 |
| 20260510002914 | 65 | 221 | 1.7 | 4.3 | 0.00 | 0.00 | 0.10 | 58 | 1007.0 |
| 20260510002414 | 65 | 245 | 2.6 | 7.0 | 0.00 | 0.00 | 0.10 | 58 | 1007.0 |
| 20260510001914 | 65 | 228 | 2.6 | 4.3 | 0.00 | 0.00 | 0.10 | 58 | 1007.0 |
| 20260510001415 | 65 | 200 | 0.9 | 2.6 | 0.00 | 0.00 | 0.10 | 58 | 1007.0 |
| 20260510000914 | 66 | 288 | 0.9 | 2.6 | 0.00 | 0.00 | 0.10 | 59 | 1007.0 |
| 20260510000414 | 66 | 152 | 1.7 | 4.3 | 0.00 | 0.00 | 0.10 | 58 | 1007.0 |
| 20260509235914 | 66 | 171 | 1.7 | 3.5 | 0.00 | 0.00 | 0.10 | 58 | 1007.0 |
| 20260509235416 | 66 | 153 | 1.7 | 3.5 | 0.00 | 0.00 | 0.10 | 58 | 1007.0 |
| 20260509234915 | 66 | 184 | 0.9 | 3.5 | 0.00 | 0.00 | 0.10 | 58 | 1007.0 |
| 20260509234414 | 67 | 264 | 0.9 | 3.5 | 0.00 | 0.00 | 0.10 | 57 | 1007.0 |
| 20260509233914 | 67 | 196 | 2.6 | 5.2 | 0.00 | 0.00 | 0.10 | 57 | 1006.0 |
| 20260509233415 | 67 | 176 | 4.3 | 8.7 | 0.00 | 0.00 | 0.10 | 57 | 1006.0 |
| 20260509232914 | 67 | 170 | 0.0 | 1.7 | 0.00 | 0.00 | 0.10 | 57 | 1006.0 |
| 20260509232415 | 67 | 194 | 5.2 | 8.7 | 0.00 | 0.00 | 0.10 | 56 | 1006.0 |
| 20260509231914 | 67 | 182 | 3.5 | 6.1 | 0.00 | 0.00 | 0.10 | 56 | 1006.0 |
| 20260509231414 | 67 | 202 | 3.5 | 9.6 | 0.00 | 0.00 | 0.10 | 55 | 1006.0 |
| 20260509230914 | 68 | 165 | 1.7 | 3.5 | 0.00 | 0.00 | 0.10 | 57 | 1006.0 |
| 20260509230416 | 68 | 220 | 1.7 | 3.5 | 0.00 | 0.00 | 0.10 | 56 | 1006.0 |
| 20260509225914 | 68 | 243 | 0.9 | 3.5 | 0.00 | 0.00 | 0.10 | 57 | 1006.0 |
| 20260509225414 | 68 | 205 | 0.9 | 3.5 | 0.00 | 0.00 | 0.10 | 56 | 1007.0 |
| 20260509224914 | 68 | 232 | 2.6 | 5.2 | 0.00 | 0.00 | 0.10 | 54 | 1006.0 |
| 20260509224414 | 68 | 196 | 2.6 | 5.2 | 0.00 | 0.00 | 0.10 | 54 | 1006.0 |
| 20260509223914 | 68 | 156 | 2.6 | 7.0 | 0.00 | 0.00 | 0.10 | 54 | 1006.0 |
| 20260509223415 | 69 | 161 | 3.5 | 6.1 | 0.00 | 0.00 | 0.10 | 53 | 1006.0 |
| 20260509222914 | 69 | 283 | 2.6 | 5.2 | 0.00 | 0.00 | 0.10 | 54 | 1006.0 |
| 20260509222415 | 69 | 179 | 3.5 | 4.3 | 0.00 | 0.00 | 0.10 | 53 | 1006.0 |
| 20260509221914 | 69 | 114 | 0.9 | 1.7 | 0.00 | 0.00 | 0.10 | 52 | 1006.0 |
| 20260509221415 | 69 | 282 | 2.6 | 5.2 | 0.00 | 0.00 | 0.10 | 52 | 1006.0 |
| 20260509220914 | 69 | 213 | 3.5 | 5.2 | 0.00 | 0.00 | 0.10 | 53 | 1006.0 |
| 20260509220414 | 69 | 177 | 2.6 | 6.1 | 0.00 | 0.00 | 0.10 | 53 | 1006.0 |
| 20260509215914 | 69 | 280 | 0.0 | 1.7 | 0.00 | 0.00 | 0.10 | 54 | 1006.0 |
| 20260509215414 | 69 | 191 | 1.7 | 5.2 | 0.00 | 0.00 | 0.10 | 53 | 1006.0 |
| 20260509214914 | 69 | 224 | 2.6 | 6.1 | 0.00 | 0.00 | 0.10 | 53 | 1006.0 |
| 20260509214414 | 69 | 164 | 4.3 | 7.8 | 0.00 | 0.00 | 0.10 | 52 | 1006.0 |
| 20260509213914 | 69 | 220 | 1.7 | 5.2 | 0.00 | 0.00 | 0.10 | 53 | 1006.0 |
| 20260509213414 | 68 | 161 | 2.6 | 5.2 | 0.00 | 0.00 | 0.10 | 53 | 1006.0 |
| 20260509212915 | 68 | 176 | 1.7 | 5.2 | 0.00 | 0.00 | 0.10 | 55 | 1006.0 |
| 20260509212414 | 69 | 170 | 6.1 | 8.7 | 0.00 | 0.00 | 0.10 | 54 | 1006.0 |
| 20260509211914 | 69 | 162 | 2.6 | 4.3 | 0.00 | 0.00 | 0.10 | 54 | 1006.0 |
| 20260509211415 | 69 | 161 | 3.5 | 6.1 | 0.00 | 0.00 | 0.10 | 53 | 1006.0 |
| 20260509210915 | 69 | 156 | 2.6 | 7.0 | 0.00 | 0.00 | 0.10 | 54 | 1006.0 |
| 20260509210415 | 69 | 225 | 2.6 | 5.2 | 0.00 | 0.00 | 0.10 | 55 | 1006.0 |
| 20260509205915 | 69 | 177 | 1.7 | 2.6 | 0.00 | 0.00 | 0.10 | 56 | 1007.0 |
| 20260509205414 | 68 | 185 | 1.7 | 3.5 | 0.00 | 0.00 | 0.10 | 56 | 1007.0 |
| 20260509204914 | 69 | 245 | 2.6 | 5.2 | 0.00 | 0.00 | 0.10 | 56 | 1007.0 |
| 20260509204414 | 69 | 195 | 2.6 | 6.1 | 0.00 | 0.00 | 0.10 | 55 | 1007.0 |
| 20260509203914 | 68 | 245 | 1.7 | 4.3 | 0.00 | 0.00 | 0.10 | 56 | 1007.0 |
| 20260509203414 | 68 | 182 | 3.5 | 7.8 | 0.00 | 0.00 | 0.10 | 55 | 1007.0 |
| 20260509202914 | 67 | 182 | 2.6 | 5.2 | 0.00 | 0.00 | 0.10 | 57 | 1007.0 |
| 20260509202414 | 67 | 245 | 2.6 | 5.2 | 0.00 | 0.00 | 0.10 | 55 | 1007.0 |
| 20260509201914 | 67 | 178 | 3.5 | 6.1 | 0.00 | 0.00 | 0.10 | 57 | 1007.0 |
| 20260509201415 | 67 | 178 | 3.5 | 5.2 | 0.00 | 0.00 | 0.10 | 58 | 1007.0 |
| 20260509200914 | 67 | 164 | 1.7 | 4.3 | 0.00 | 0.00 | 0.10 | 59 | 1007.0 |
| 20260509200416 | 67 | 257 | 2.6 | 5.2 | 0.00 | 0.00 | 0.10 | 59 | 1007.0 |
| 20260509195914 | 67 | 166 | 2.6 | 4.3 | 0.00 | 0.00 | 0.10 | 59 | 1007.0 |
| 20260509195414 | 66 | 248 | 1.7 | 5.2 | 0.00 | 0.00 | 0.10 | 59 | 1007.0 |
| 20260509194921 | 66 | 186 | 3.5 | 5.2 | 0.00 | 0.00 | 0.10 | 60 | 1008.0 |
| 20260509194415 | 66 | 189 | 2.6 | 4.3 | 0.00 | 0.00 | 0.10 | 59 | 1008.0 |
| 20260509193914 | 66 | 212 | 1.7 | 3.5 | 0.00 | 0.00 | 0.10 | 59 | 1008.0 |
| 20260509193415 | 66 | 171 | 1.7 | 5.2 | 0.00 | 0.00 | 0.10 | 62 | 1008.0 |
| 20260509192915 | 67 | 153 | 3.5 | 6.1 | 0.00 | 0.00 | 0.10 | 60 | 1008.0 |
| 20260509192415 | 67 | 158 | 0.9 | 2.6 | 0.00 | 0.00 | 0.10 | 60 | 1008.0 |
| 20260509191915 | 66 | 184 | 2.6 | 5.2 | 0.00 | 0.00 | 0.10 | 61 | 1008.0 |
| 20260509191415 | 66 | 166 | 2.6 | 4.3 | 0.00 | 0.00 | 0.10 | 61 | 1008.0 |
| 20260509190914 | 65 | 188 | 3.5 | 6.1 | 0.00 | 0.00 | 0.10 | 62 | 1008.0 |
| 20260509190414 | 65 | 254 | 3.5 | 7.8 | 0.00 | 0.00 | 0.10 | 63 | 1008.0 |
| 20260509185914 | 66 | 224 | 4.3 | 7.8 | 0.00 | 0.00 | 0.10 | 63 | 1008.0 |
| 20260509185414 | 66 | 135 | 1.7 | 4.3 | 0.00 | 0.00 | 0.10 | 63 | 1008.0 |
| 20260509184914 | 66 | 204 | 1.7 | 3.5 | 0.00 | 0.00 | 0.10 | 64 | 1008.0 |
| 20260509184414 | 65 | 159 | 3.5 | 6.1 | 0.00 | 0.00 | 0.10 | 66 | 1008.0 |
| 20260509183914 | 65 | 241 | 1.7 | 3.5 | 0.00 | 0.00 | 0.10 | 66 | 1008.0 |
| 20260509183414 | 65 | 202 | 2.6 | 4.3 | 0.00 | 0.00 | 0.10 | 67 | 1008.0 |
| 20260509182914 | 64 | 275 | 0.9 | 2.6 | 0.00 | 0.00 | 0.10 | 71 | 1008.0 |
| 20260509182414 | 64 | 273 | 1.7 | 3.5 | 0.00 | 0.00 | 0.10 | 71 | 1008.0 |
| 20260509181915 | 64 | 202 | 3.5 | 6.1 | 0.00 | 0.00 | 0.10 | 71 | 1008.0 |
| 20260509181414 | 63 | 177 | 5.2 | 6.1 | 0.00 | 0.00 | 0.10 | 70 | 1008.0 |
| 20260509180914 | 62 | 225 | 2.6 | 6.1 | 0.00 | 0.00 | 0.10 | 73 | 1008.0 |
| 20260509180414 | 62 | 205 | 2.6 | 6.1 | 0.00 | 0.00 | 0.10 | 75 | 1008.0 |
| 20260509175914 | 63 | 146 | 1.7 | 3.5 | 0.00 | 0.00 | 0.10 | 75 | 1008.0 |
| 20260509175414 | 62 | 184 | 1.7 | 3.5 | 0.00 | 0.00 | 0.10 | 75 | 1008.0 |
| 20260509174914 | 62 | 189 | 2.6 | 5.2 | 0.00 | 0.00 | 0.10 | 76 | 1008.0 |
| 20260509174414 | 62 | 210 | 2.6 | 4.3 | 0.00 | 0.00 | 0.10 | 76 | 1008.0 |
| 20260509173914 | 62 | 293 | 1.7 | 3.5 | 0.00 | 0.00 | 0.10 | 75 | 1008.0 |
| 20260509173414 | 62 | 171 | 1.7 | 5.2 | 0.00 | 0.00 | 0.10 | 76 | 1008.0 |
| 20260509172917 | 62 | 261 | 1.7 | 3.5 | 0.00 | 0.00 | 0.10 | 77 | 1008.0 |
| 20260509172414 | 61 | 204 | 2.6 | 7.0 | 0.00 | 0.00 | 0.10 | 76 | 1008.0 |
| 20260509171914 | 61 | 177 | 1.7 | 3.5 | 0.00 | 0.00 | 0.10 | 80 | 1008.0 |
| 20260509171414 | 60 | 265 | 0.0 | 0.9 | 0.00 | 0.00 | 0.10 | 80 | 1008.0 |
| 20260509170914 | 60 | 178 | 0.9 | 3.5 | 0.00 | 0.00 | 0.10 | 82 | 1008.0 |
| 20260509170414 | 60 | 205 | 0.9 | 3.5 | 0.00 | 0.00 | 0.10 | 83 | 1008.0 |
| 20260509165915 | 59 | 295 | 0.9 | 2.6 | 0.00 | 0.00 | 0.10 | 83 | 1008.0 |
| 20260509165414 | 59 | 177 | 2.6 | 5.2 | 0.00 | 0.00 | 0.10 | 85 | 1009.0 |
| 20260509164914 | 58 | 170 | 2.6 | 3.5 | 0.00 | 0.00 | 0.10 | 85 | 1008.0 |
| 20260509164415 | 58 | 0 | 0.0 | 0.0 | 0.00 | 0.00 | 0.10 | 86 | 1008.0 |
| 20260509163915 | 58 | 174 | 0.0 | 0.9 | 0.00 | 0.00 | 0.10 | 86 | 1008.0 |
| 20260509163414 | 57 | 0 | 0.0 | 0.0 | 0.00 | 0.00 | 0.10 | 89 | 1009.0 |
| 20260509162914 | 57 | 156 | 0.0 | 0.0 | 0.00 | 0.00 | 0.10 | 89 | 1009.0 |
| 20260509162414 | 57 | 244 | 0.0 | 0.0 | 0.00 | 0.00 | 0.10 | 90 | 1009.0 |
| 20260509161914 | 57 | 178 | 1.7 | 3.5 | 0.00 | 0.00 | 0.10 | 89 | 1008.0 |
| 20260509161415 | 57 | 303 | 1.7 | 2.6 | 0.00 | 0.00 | 0.10 | 89 | 1008.0 |
| 20260509160915 | 57 | 152 | 0.9 | 1.7 | 0.00 | 0.00 | 0.10 | 89 | 1008.0 |
| 20260509160414 | 56 | 269 | 1.7 | 2.6 | 0.00 | 0.00 | 0.10 | 90 | 1008.0 |
| 20260509155915 | 56 | 179 | 1.7 | 1.7 | 0.00 | 0.00 | 0.10 | 89 | 1008.0 |
| 20260509155415 | 56 | 247 | 0.9 | 1.7 | 0.00 | 0.00 | 0.10 | 91 | 1009.0 |
| 20260509154914 | 56 | 186 | 3.5 | 4.3 | 0.00 | 0.00 | 0.10 | 91 | 1008.0 |
| 20260509154414 | 56 | 158 | 0.0 | 2.6 | 0.00 | 0.00 | 0.10 | 91 | 1008.0 |
| 20260509153914 | 56 | 153 | 0.0 | 1.7 | 0.00 | 0.00 | 0.10 | 91 | 1008.0 |
| 20260509153414 | 56 | 226 | 1.7 | 1.7 | 0.00 | 0.00 | 0.10 | 91 | 1008.0 |
| 20260509152914 | 56 | 186 | 1.7 | 2.6 | 0.00 | 0.00 | 0.10 | 91 | 1008.0 |
| 20260509152414 | 55 | 192 | 1.7 | 1.7 | 0.00 | 0.00 | 0.11 | 93 | 1008.0 |
| 20260509151915 | 55 | 215 | 1.7 | 4.3 | 0.00 | 0.00 | 0.11 | 93 | 1008.0 |
| 20260509151415 | 55 | 223 | 1.7 | 5.2 | 0.00 | 0.00 | 0.11 | 94 | 1008.0 |
| 20260509150914 | 54 | 197 | 1.7 | 2.6 | 0.00 | 0.00 | 0.11 | 95 | 1008.0 |
| 20260509150415 | 54 | 141 | 0.9 | 1.7 | 0.00 | 0.00 | 0.11 | 95 | 1008.0 |
| 20260509145914 | 53 | 170 | 0.0 | 0.0 | 0.00 | 0.00 | 0.11 | 95 | 1008.0 |
| 20260509145414 | 53 | 0 | 0.0 | 0.0 | 0.00 | 0.00 | 0.11 | 96 | 1008.0 |
| 20260509144915 | 53 | 178 | 0.9 | 2.6 | 0.00 | 0.00 | 0.09 | 96 | 1008.0 |
| 20260509144414 | 53 | 110 | 0.9 | 1.7 | 0.00 | 0.00 | 0.09 | 96 | 1008.0 |
| 20260509143914 | 53 | 107 | 0.0 | 0.0 | 0.01 | 0.00 | 0.08 | 96 | 1008.0 |
| 20260509143414 | 53 | 208 | 1.7 | 1.7 | 0.06 | 0.00 | 0.08 | 96 | 1008.0 |
| 20260509142914 | 53 | 152 | 1.7 | 1.7 | 0.06 | 0.00 | 0.07 | 96 | 1008.0 |
| 20260509142415 | 53 | 140 | 0.9 | 1.7 | 0.10 | 0.00 | 0.06 | 95 | 1008.0 |
| 20260509141915 | 53 | 182 | 0.0 | 0.9 | 0.06 | 0.00 | 0.06 | 95 | 1008.0 |
| 20260509141414 | 53 | 166 | 0.0 | 0.0 | 0.00 | 0.00 | 0.06 | 95 | 1008.0 |
| 20260509140916 | 53 | 214 | 0.0 | 0.0 | 0.00 | 0.00 | 0.06 | 95 | 1008.0 |
| 20260509140415 | 53 | 111 | 0.0 | 0.0 | 0.00 | 0.00 | 0.06 | 95 | 1008.0 |
| 20260509135914 | 53 | 121 | 0.9 | 1.7 | 0.00 | 0.00 | 0.06 | 95 | 1008.0 |
| 20260509135414 | 53 | 146 | 0.9 | 0.9 | 0.00 | 0.00 | 0.06 | 95 | 1008.0 |
| 20260509134914 | 53 | 182 | 2.6 | 3.5 | 0.00 | 0.00 | 0.06 | 95 | 1008.0 |
| 20260509134414 | 53 | 164 | 2.6 | 3.5 | 0.00 | 0.00 | 0.06 | 95 | 1009.0 |
| 20260509133924 | 53 | 116 | 0.9 | 1.7 | 0.00 | 0.00 | 0.06 | 95 | 1009.0 |
| 20260509133414 | 53 | 241 | 1.7 | 2.6 | 0.00 | 0.00 | 0.06 | 95 | 1009.0 |
| 20260509132915 | 53 | 357 | 0.0 | 0.9 | 0.00 | 0.00 | 0.06 | 95 | 1009.0 |
| 20260509132415 | 52 | 149 | 0.0 | 1.7 | 0.00 | 0.00 | 0.06 | 95 | 1009.0 |
| 20260509131915 | 52 | 167 | 0.9 | 1.7 | 0.00 | 0.00 | 0.06 | 95 | 1009.0 |
| 20260509131416 | 52 | 210 | 2.6 | 3.5 | 0.00 | 0.00 | 0.06 | 95 | 1009.0 |
| 20260509130915 | 52 | 200 | 0.9 | 1.7 | 0.00 | 0.00 | 0.06 | 95 | 1009.0 |
| 20260509130414 | 52 | 103 | 0.0 | 0.9 | 0.00 | 0.00 | 0.06 | 96 | 1009.0 |
| 20260509125915 | 52 | 186 | 3.5 | 4.3 | 0.00 | 0.00 | 0.06 | 96 | 1009.0 |
| 20260509125415 | 52 | 229 | 1.7 | 2.6 | 0.00 | 0.00 | 0.06 | 97 | 1009.0 |
| 20260509124914 | 51 | 178 | 3.5 | 3.5 | 0.00 | 0.00 | 0.06 | 98 | 1009.0 |
| 20260509124414 | 51 | 210 | 1.7 | 3.5 | 0.00 | 0.00 | 0.06 | 99 | 1009.0 |
| 20260509123914 | 51 | 224 | 1.7 | 1.7 | 0.00 | 0.00 | 0.06 | 99 | 1009.0 |
| 20260509123414 | 51 | 185 | 1.7 | 1.7 | 0.00 | 0.00 | 0.06 | 99 | 1009.0 |
| 20260509122915 | 51 | 0 | 0.0 | 0.0 | 0.00 | 0.00 | 0.06 | 99 | 1009.0 |
| 20260509122414 | 50 | 0 | 0.0 | 0.0 | 0.00 | 0.00 | 0.06 | 99 | 1009.0 |
| 20260509121914 | 50 | 125 | 0.0 | 0.9 | 0.00 | 0.00 | 0.06 | 99 | 1009.0 |
| 20260509121414 | 50 | 20 | 0.9 | 1.7 | 0.00 | 0.00 | 0.06 | 99 | 1009.0 |
| 20260509120915 | 50 | 23 | 0.9 | 1.7 | 0.00 | 0.00 | 0.06 | 99 | 1009.0 |
| 20260509120414 | 50 | 13 | 0.0 | 0.9 | 0.00 | 0.00 | 0.06 | 99 | 1009.0 |
| 20260509115914 | 50 | 0 | 0.0 | 0.0 | 0.00 | 0.00 | 0.06 | 99 | 1009.0 |
| 20260509115414 | 50 | 0 | 0.0 | 0.0 | 0.00 | 0.00 | 0.06 | 99 | 1009.0 |
| 20260509114914 | 50 | 39 | 0.0 | 0.0 | 0.00 | 0.00 | 0.06 | 99 | 1009.0 |
| 20260509114414 | 50 | 0 | 0.0 | 0.0 | 0.00 | 0.00 | 0.06 | 99 | 1009.0 |
| 20260509113919 | 50 | 44 | 0.0 | 0.0 | 0.00 | 0.00 | 0.06 | 99 | 1009.0 |
| 20260509113415 | 49 | 0 | 0.0 | 0.0 | 0.00 | 0.00 | 0.06 | 99 | 1009.0 |
| 20260509112914 | 49 | 94 | 0.0 | 0.9 | 0.00 | 0.00 | 0.06 | 99 | 1009.0 |
| 20260509112414 | 49 | 101 | 0.0 | 0.9 | 0.00 | 0.00 | 0.06 | 99 | 1009.0 |
| 20260509111915 | 49 | 0 | 0.0 | 0.0 | 0.02 | 0.00 | 0.07 | 99 | 1009.0 |
| 20260509111414 | 49 | 0 | 0.0 | 0.0 | 0.00 | 0.00 | 0.06 | 99 | 1009.0 |
| 20260509110915 | 49 | 0 | 0.0 | 0.0 | 0.00 | 0.00 | 0.06 | 99 | 1009.0 |
| 20260509110414 | 49 | 171 | 0.9 | 1.7 | 0.00 | 0.00 | 0.06 | 99 | 1009.0 |
| 20260509105914 | 49 | 112 | 0.0 | 0.0 | 0.01 | 0.00 | 0.06 | 99 | 1009.0 |
| 20260509105414 | 49 | 0 | 0.0 | 0.0 | 0.00 | 0.00 | 0.06 | 99 | 1009.0 |
| 20260509104914 | 49 | 0 | 0.0 | 0.0 | 0.00 | 0.00 | 0.06 | 99 | 1009.0 |
| 20260509104414 | 49 | 0 | 0.0 | 0.0 | 0.01 | 0.00 | 0.06 | 99 | 1009.0 |
| 20260509103914 | 49 | 0 | 0.0 | 0.0 | 0.01 | 0.00 | 0.06 | 99 | 1009.0 |
| 20260509103414 | 49 | 191 | 1.7 | 1.7 | 0.00 | 0.00 | 0.05 | 99 | 1009.0 |
| 20260509102914 | 49 | 201 | 1.7 | 1.7 | 0.00 | 0.00 | 0.05 | 99 | 1008.0 |
| 20260509102414 | 49 | 153 | 0.0 | 0.0 | 0.03 | 0.00 | 0.05 | 99 | 1009.0 |
| 20260509101915 | 49 | 189 | 1.7 | 1.7 | 0.07 | 0.00 | 0.05 | 99 | 1009.0 |
| 20260509101414 | 49 | 0 | 0.0 | 0.0 | 0.02 | 0.00 | 0.04 | 99 | 1009.0 |
| 20260509100914 | 49 | 5 | 0.0 | 0.9 | 0.01 | 0.00 | 0.04 | 99 | 1009.0 |
| 20260509100414 | 49 | 0 | 0.0 | 0.0 | 0.00 | 0.00 | 0.04 | 99 | 1009.0 |
| 20260509095914 | 49 | 0 | 0.0 | 0.0 | 0.05 | 0.00 | 0.04 | 99 | 1009.0 |
| 20260509095414 | 49 | 0 | 0.0 | 0.0 | 0.04 | 0.00 | 0.03 | 99 | 1009.0 |
| 20260509094914 | 49 | 0 | 0.0 | 0.0 | 0.02 | 0.00 | 0.03 | 99 | 1009.0 |
| 20260509094414 | 49 | 0 | 0.0 | 0.0 | 0.02 | 0.00 | 0.03 | 99 | 1009.0 |
| 20260509093914 | 49 | 0 | 0.0 | 0.0 | 0.03 | 0.00 | 0.03 | 99 | 1009.0 |
| 20260509093414 | 49 | 0 | 0.0 | 0.0 | 0.01 | 0.00 | 0.03 | 99 | 1009.0 |
| 20260509092919 | 49 | 0 | 0.0 | 0.0 | 0.02 | 0.00 | 0.03 | 99 | 1009.0 |
| 20260509092414 | 49 | 236 | 0.0 | 0.0 | 0.06 | 0.00 | 0.03 | 99 | 1009.0 |
| 20260509091915 | 49 | 0 | 0.0 | 0.0 | 0.01 | 0.00 | 0.03 | 99 | 1009.0 |
| 20260509091414 | 49 | 245 | 0.9 | 2.6 | 0.05 | 0.00 | 0.03 | 99 | 1009.0 |
| 20260509090914 | 49 | 0 | 0.0 | 0.0 | 0.00 | 0.00 | 0.02 | 99 | 1009.0 |
| 20260509090414 | 49 | 0 | 0.0 | 0.0 | 0.00 | 0.00 | 0.03 | 99 | 1009.0 |
| 20260509085915 | 49 | 0 | 0.0 | 0.0 | 0.03 | 0.00 | 0.02 | 99 | 1009.0 |
| 20260509085415 | 49 | 0 | 0.0 | 0.0 | 0.02 | 0.00 | 0.02 | 99 | 1009.0 |
| 20260509084915 | 49 | 0 | 0.0 | 0.0 | 0.02 | 0.00 | 0.02 | 99 | 1009.0 |
| 20260509084414 | 49 | 0 | 0.0 | 0.0 | 0.04 | 0.00 | 0.02 | 99 | 1009.0 |
| 20260509083914 | 49 | 0 | 0.0 | 0.0 | 0.04 | 0.00 | 0.02 | 99 | 1009.0 |
| 20260509083415 | 49 | 14 | 0.0 | 1.7 | 0.01 | 0.00 | 0.02 | 99 | 1010.0 |
| 20260509082915 | 49 | 0 | 0.0 | 0.0 | 0.03 | 0.00 | 0.02 | 99 | 1009.0 |
| 20260509082416 | 49 | 62 | 0.0 | 0.9 | 0.00 | 0.00 | 0.01 | 99 | 1009.0 |
| 20260509081914 | 49 | 22 | 1.7 | 2.6 | 0.00 | 0.00 | 0.02 | 99 | 1009.0 |
| 20260509081415 | 49 | 0 | 0.0 | 0.0 | 0.04 | 0.00 | 0.02 | 99 | 1010.0 |
| 20260509080914 | 49 | 0 | 0.0 | 0.0 | 0.01 | 0.00 | 0.02 | 99 | 1010.0 |
| 20260509080414 | 49 | 0 | 0.0 | 0.0 | 0.08 | 0.00 | 0.02 | 99 | 1010.0 |
| 20260509075915 | 49 | 0 | 0.0 | 0.0 | 0.04 | 0.00 | 0.01 | 99 | 1010.0 |
| 20260509075415 | 49 | 0 | 0.0 | 0.0 | 0.00 | 0.00 | 0.01 | 99 | 1010.0 |
| 20260509074914 | 49 | 24 | 0.0 | 1.7 | 0.00 | 0.00 | 0.01 | 99 | 1010.0 |
| 20260509074414 | 49 | 0 | 0.0 | 0.0 | 0.00 | 0.00 | 0.01 | 99 | 1010.0 |
| 20260509073914 | 49 | 0 | 0.0 | 0.0 | 0.00 | 0.00 | 0.01 | 99 | 1010.0 |
| 20260509073414 | 49 | 0 | 0.0 | 0.0 | 0.00 | 0.00 | 0.01 | 99 | 1010.0 |
| 20260509072914 | 49 | 0 | 0.0 | 0.0 | 0.01 | 0.00 | 0.01 | 99 | 1010.0 |
| 20260509072414 | 49 | 0 | 0.0 | 0.0 | 0.01 | 0.00 | 0.01 | 99 | 1010.0 |
| 20260509071914 | 49 | 0 | 0.0 | 0.0 | 0.09 | 0.00 | 0.01 | 99 | 1009.0 |
| 20260509071414 | 49 | 0 | 0.0 | 0.0 | 0.05 | 0.00 | 0.00 | 99 | 1010.0 |
| 20260509070915 | 49 | 0 | 0.0 | 0.0 | 0.00 | 0.00 | 0.00 | 99 | 1010.0 |
| 20260509070415 | 49 | 0 | 0.0 | 0.0 | 0.00 | 0.00 | 0.00 | 99 | 1010.0 |
| 20260509065914 | 49 | 0 | 0.0 | 0.0 | 0.00 | 0.00 | 0.00 | 99 | 1010.0 |
| 20260509065415 | 49 | 0 | 0.0 | 0.0 | 0.00 | 0.00 | 0.00 | 99 | 1009.0 |
| 20260509064915 | 49 | 0 | 0.0 | 0.0 | 0.00 | 0.00 | 0.00 | 99 | 1009.0 |
| 20260509064414 | 49 | 0 | 0.0 | 0.0 | 0.00 | 0.00 | 0.00 | 99 | 1009.0 |
| 20260509063914 | 49 | 0 | 0.0 | 0.0 | 0.00 | 0.00 | 0.00 | 99 | 1009.0 |
| 20260509063414 | 49 | 0 | 0.0 | 0.0 | 0.00 | 0.00 | 0.00 | 99 | 1010.0 |
| 20260509062914 | 49 | 0 | 0.0 | 0.0 | 0.00 | 0.00 | 0.00 | 99 | 1010.0 |
| 20260509062414 | 49 | 0 | 0.0 | 0.0 | 0.00 | 0.00 | 0.00 | 99 | 1010.0 |
| 20260509061914 | 49 | 0 | 0.0 | 0.0 | 0.00 | 0.00 | 0.00 | 98 | 1010.0 |
| 20260509061415 | 49 | 0 | 0.0 | 0.0 | 0.00 | 0.00 | 0.00 | 98 | 1010.0 |
| 20260509060915 | 49 | 0 | 0.0 | 0.0 | 0.00 | 0.00 | 0.00 | 98 | 1010.0 |
| 20260509060415 | 49 | 29 | 0.0 | 0.9 | 0.00 | 0.00 | 0.00 | 98 | 1010.0 |
| 20260509055915 | 49 | 0 | 0.0 | 0.0 | 0.00 | 0.00 | 0.00 | 98 | 1010.0 |
| 20260509055414 | 49 | 356 | 0.9 | 1.7 | 0.00 | 0.00 | 0.00 | 98 | 1010.0 |
| 20260509054914 | 49 | 0 | 0.0 | 0.0 | 0.00 | 0.00 | 0.00 | 98 | 1010.0 |
| 20260509054415 | 49 | 0 | 0.0 | 0.0 | 0.00 | 0.00 | 0.00 | 98 | 1010.0 |
| 20260509053914 | 49 | 0 | 0.0 | 0.0 | 0.01 | 0.00 | 0.00 | 98 | 1010.0 |
| 20260509053414 | 49 | 0 | 0.0 | 0.0 | 0.00 | 0.00 | 0.00 | 98 | 1010.0 |
| 20260509052914 | 49 | 0 | 0.0 | 0.0 | 0.01 | 0.00 | 0.00 | 98 | 1010.0 |
| 20260509052414 | 49 | 0 | 0.0 | 0.0 | 0.01 | 0.00 | 0.00 | 98 | 1010.0 |
| 20260509051915 | 49 | 0 | 0.0 | 0.0 | 0.00 | 0.00 | 0.00 | 98 | 1011.0 |
| 20260509051414 | 49 | 0 | 0.0 | 0.0 | 0.00 | 0.00 | 0.00 | 98 | 1011.0 |
| 20260509050915 | 49 | 33 | 0.0 | 0.9 | 0.00 | 0.00 | 0.00 | 98 | 1011.0 |
| 20260509050415 | 49 | 0 | 0.0 | 0.0 | 0.00 | 0.00 | 0.00 | 98 | 1011.0 |
| 20260509045914 | 49 | 0 | 0.0 | 0.0 | 0.00 | 0.00 | 0.00 | 98 | 1011.0 |
| 20260509045414 | 49 | 0 | 0.0 | 0.0 | 0.00 | 0.00 | 0.00 | 98 | 1011.0 |